createdAt,value
2019-03-29T00:02:16.375Z,45.63
2019-03-29T00:04:47.735Z,45.60
2019-03-29T00:07:18.715Z,46.90
2019-03-29T00:09:49.376Z,47.85
2019-03-29T00:12:19.922Z,48.87
2019-03-29T00:14:50.686Z,47.43
2019-03-29T00:17:21.353Z,47.13
2019-03-29T00:19:51.891Z,48.52
2019-03-29T00:22:22.839Z,50.52
2019-03-29T00:24:53.613Z,44.90
2019-03-29T00:27:24.121Z,61.40
2019-03-29T00:29:55.269Z,48.60
2019-03-29T00:32:26.668Z,47.70
2019-03-29T00:34:57.399Z,49.35
2019-03-29T00:37:27.956Z,47.27
2019-03-29T00:39:58.781Z,54.53
2019-03-29T00:42:29.470Z,55.43
2019-03-29T00:45:00.370Z,53.05
2019-03-29T00:47:31.144Z,53.45
2019-03-29T00:50:01.706Z,55.50
2019-03-29T00:52:32.449Z,55.10
2019-03-29T00:55:03.160Z,62.78
2019-03-29T00:57:33.773Z,53.38
2019-03-29T01:00:05.278Z,60.90
2019-03-29T01:02:36.229Z,53.52
2019-03-29T01:05:08.970Z,53.87
2019-03-29T01:07:39.822Z,47.95
2019-03-29T01:10:12.513Z,48.68
2019-03-29T01:12:43.152Z,50.30
2019-03-29T01:15:14.982Z,47.95
2019-03-29T01:17:45.927Z,50.40
2019-03-29T01:20:16.907Z,45.38
2019-03-29T01:22:47.321Z,52.38
2019-03-29T01:25:18.962Z,48.65
2019-03-29T01:27:49.631Z,50.48
2019-03-29T01:30:22.319Z,48.05
2019-03-29T01:32:53.769Z,47.95
2019-03-29T01:35:24.659Z,45.30
2019-03-29T01:37:55.558Z,42.62
2019-03-29T01:40:26.149Z,43.25
2019-03-29T01:42:56.982Z,45.58
2019-03-29T01:45:27.922Z,43.55
2019-03-29T01:47:58.636Z,40.60
2019-03-29T01:50:32.354Z,41.20
2019-03-29T01:53:03.246Z,40.90
2019-03-29T01:55:37.037Z,48.17
2019-03-29T01:58:07.638Z,50.00
2019-03-29T02:00:41.785Z,43.98
2019-03-29T02:03:18.706Z,44.90
2019-03-29T02:05:50.136Z,43.45
2019-03-29T02:08:34.865Z,54.65
2019-03-29T02:10:53.160Z,45.23
2019-03-29T02:13:24.076Z,45.55
2019-03-29T02:15:55.015Z,42.55
2019-03-29T02:18:25.855Z,47.73
2019-03-29T02:20:56.922Z,46.80
2019-03-29T02:23:27.871Z,46.30
2019-03-29T02:26:03.820Z,50.20
2019-03-29T02:28:34.743Z,45.43
2019-03-29T02:31:05.682Z,63.05
2019-03-29T02:33:36.765Z,47.90
2019-03-29T02:36:07.725Z,48.45
2019-03-29T02:38:54.221Z,43.33
2019-03-29T02:41:11.791Z,48.15
2019-03-29T02:43:42.637Z,41.30
2019-03-29T02:46:13.610Z,38.73
2019-03-29T02:48:45.116Z,38.88
2019-03-29T02:51:15.915Z,42.65
2019-03-29T02:53:46.648Z,40.43
2019-03-29T02:56:18.569Z,39.80
2019-03-29T02:58:49.439Z,35.25
2019-03-29T03:01:21.311Z,41.70
2019-03-29T03:03:52.270Z,41.75
2019-03-29T03:06:23.353Z,39.10
2019-03-29T03:09:11.787Z,35.85
2019-03-29T03:11:26.922Z,37.05
2019-03-29T03:13:57.795Z,38.67
2019-03-29T03:16:28.844Z,38.05
2019-03-29T03:19:00.216Z,36.73
2019-03-29T03:21:31.175Z,39.48
2019-03-29T03:24:02.202Z,33.05
2019-03-29T03:26:32.979Z,32.23
2019-03-29T03:29:03.732Z,30.10
2019-03-29T03:31:34.552Z,34.65
2019-03-29T03:34:05.391Z,36.45
2019-03-29T03:36:36.663Z,41.95
2019-03-29T03:39:09.219Z,44.58
2019-03-29T03:41:41.607Z,33.92
2019-03-29T03:44:12.421Z,32.85
2019-03-29T03:46:43.603Z,36.68
2019-03-29T03:49:14.715Z,40.63
2019-03-29T03:51:45.540Z,35.55
2019-03-29T03:54:16.499Z,34.23
2019-03-29T03:56:47.875Z,29.20
2019-03-29T03:59:18.779Z,29.20
2019-03-29T04:01:49.790Z,35.90
2019-03-29T04:04:20.960Z,30.85
2019-03-29T04:06:51.734Z,35.70
2019-03-29T04:09:22.772Z,39.58
2019-03-29T04:11:53.440Z,29.48
2019-03-29T04:14:24.379Z,26.97
2019-03-29T04:16:55.945Z,28.83
2019-03-29T04:19:26.912Z,24.15
2019-03-29T04:21:57.611Z,26.95
2019-03-29T04:24:28.427Z,28.42
2019-03-29T04:26:59.477Z,24.98
2019-03-29T04:29:30.316Z,25.68
2019-03-29T04:32:01.425Z,30.77
2019-03-29T04:34:32.500Z,28.47
2019-03-29T04:37:03.097Z,27.22
2019-03-29T04:39:34.080Z,23.65
2019-03-29T04:42:06.057Z,29.45
2019-03-29T04:44:36.746Z,23.92
2019-03-29T04:47:07.494Z,28.95
2019-03-29T04:49:38.313Z,25.30
2019-03-29T04:52:09.113Z,24.60
2019-03-29T04:54:40.107Z,35.23
2019-03-29T04:57:10.986Z,21.15
2019-03-29T04:59:42.090Z,22.93
2019-03-29T05:02:12.872Z,23.55
2019-03-29T05:04:54.901Z,27.60
2019-03-29T05:07:27.347Z,22.87
2019-03-29T05:10:00.339Z,21.10
2019-03-29T05:12:35.794Z,21.90
2019-03-29T05:15:08.495Z,27.60
2019-03-29T05:17:39.867Z,20.23
2019-03-29T05:20:15.652Z,18.62
2019-03-29T05:22:46.655Z,20.70
2019-03-29T05:25:18.156Z,24.20
2019-03-29T05:27:52.134Z,24.45
2019-03-29T05:30:23.356Z,24.25
2019-03-29T05:32:54.323Z,22.10
2019-03-29T05:35:25.398Z,30.30
2019-03-29T05:37:56.255Z,24.02
2019-03-29T05:40:34.667Z,23.90
2019-03-29T05:42:59.830Z,20.70
2019-03-29T05:45:30.658Z,20.68
2019-03-29T05:48:01.561Z,19.07
2019-03-29T05:50:32.382Z,21.62
2019-03-29T05:53:03.470Z,32.23
2019-03-29T05:55:35.712Z,30.57
2019-03-29T05:58:09.318Z,45.30
2019-03-29T06:00:45.902Z,20.70
2019-03-29T06:03:17.184Z,22.22
2019-03-29T06:05:51.989Z,19.15
2019-03-29T06:08:22.976Z,30.27
2019-03-29T06:10:53.948Z,19.62
2019-03-29T06:13:24.883Z,24.37
2019-03-29T06:15:55.944Z,34.53
2019-03-29T06:18:26.890Z,19.90
2019-03-29T06:20:57.742Z,19.35
2019-03-29T06:23:28.570Z,23.57
2019-03-29T06:25:59.370Z,18.85
2019-03-29T06:28:30.306Z,22.02
2019-03-29T06:31:01.346Z,20.27
2019-03-29T06:33:32.190Z,18.42
2019-03-29T06:36:04.973Z,24.72
2019-03-29T06:38:37.449Z,22.55
2019-03-29T06:41:08.270Z,25.57
2019-03-29T06:43:39.272Z,18.73
2019-03-29T06:46:10.035Z,28.17
2019-03-29T06:48:40.989Z,23.67
2019-03-29T06:51:12.642Z,23.92
2019-03-29T06:53:43.683Z,30.08
2019-03-29T06:56:14.498Z,20.20
2019-03-29T06:58:45.258Z,23.40
2019-03-29T07:01:16.236Z,23.27
2019-03-29T07:03:47.135Z,21.68
2019-03-29T07:06:17.869Z,28.87
2019-03-29T07:08:48.819Z,25.15
2019-03-29T07:11:20.107Z,24.80
2019-03-29T07:13:57.379Z,34.27
2019-03-29T07:16:23.991Z,27.65
2019-03-29T07:18:54.907Z,16.73
2019-03-29T07:21:26.187Z,19.95
2019-03-29T07:23:57.342Z,15.78
2019-03-29T07:26:31.519Z,19.07
2019-03-29T07:29:02.484Z,22.50
2019-03-29T07:31:33.416Z,11.93
2019-03-29T07:34:04.291Z,11.08
2019-03-29T07:36:35.310Z,13.08
2019-03-29T07:39:07.966Z,14.10
2019-03-29T07:41:38.884Z,10.40
2019-03-29T07:44:09.931Z,12.47
2019-03-29T07:46:41.055Z,14.83
2019-03-29T07:49:11.995Z,11.38
2019-03-29T07:51:42.738Z,14.10
2019-03-29T07:54:13.489Z,10.28
2019-03-29T07:56:44.420Z,11.50
2019-03-29T07:59:15.847Z,11.45
2019-03-29T08:01:46.978Z,12.25
2019-03-29T08:04:17.759Z,10.38
2019-03-29T08:06:48.874Z,12.00
2019-03-29T08:09:22.709Z,11.70
2019-03-29T08:11:56.069Z,10.25
2019-03-29T08:14:27.054Z,13.00
2019-03-29T08:16:58.018Z,12.13
2019-03-29T08:19:29.088Z,11.12
2019-03-29T08:21:59.973Z,14.18
2019-03-29T08:24:30.854Z,14.35
2019-03-29T08:27:01.712Z,16.12
2019-03-29T08:29:32.857Z,13.98
2019-03-29T08:32:03.757Z,13.55
2019-03-29T08:34:35.877Z,14.65
2019-03-29T08:37:06.473Z,15.80
2019-03-29T08:39:37.307Z,69.03
2019-03-29T08:42:08.469Z,61.30
2019-03-29T08:44:39.479Z,24.70
2019-03-29T08:47:10.472Z,23.52
2019-03-29T08:49:41.836Z,25.40
2019-03-29T08:52:12.832Z,27.35
2019-03-29T08:54:44.187Z,26.30
2019-03-29T08:57:15.445Z,36.17
2019-03-29T08:59:46.369Z,31.25
2019-03-29T09:02:17.557Z,27.70
2019-03-29T09:04:48.256Z,34.83
2019-03-29T09:07:19.097Z,36.53
2019-03-29T09:09:50.312Z,35.78
2019-03-29T09:12:21.223Z,26.42
2019-03-29T09:14:52.116Z,21.20
2019-03-29T09:17:23.030Z,21.48
2019-03-29T09:19:54.142Z,29.92
2019-03-29T09:22:25.034Z,20.12
2019-03-29T09:24:55.941Z,28.07
2019-03-29T09:27:27.648Z,33.85
2019-03-29T09:29:58.617Z,24.90
2019-03-29T09:32:29.483Z,24.80
2019-03-29T09:35:00.608Z,77.08
2019-03-29T09:37:32.461Z,50.75
2019-03-29T09:40:03.544Z,43.83
2019-03-29T09:42:34.641Z,49.33
2019-03-29T09:45:06.710Z,46.53
2019-03-29T09:47:40.574Z,34.30
2019-03-29T09:50:11.700Z,19.20
2019-03-29T09:52:42.548Z,18.85
2019-03-29T09:55:19.184Z,16.52
2019-03-29T09:57:50.459Z,15.13
2019-03-29T10:00:23.552Z,17.07
2019-03-29T10:02:53.653Z,15.13
2019-03-29T10:05:25.190Z,16.40
2019-03-29T10:07:56.376Z,17.32
2019-03-29T10:10:27.041Z,16.57
2019-03-29T10:12:57.972Z,21.07
2019-03-29T10:15:28.588Z,15.55
2019-03-29T10:17:59.607Z,19.23
2019-03-29T10:20:30.282Z,15.70
2019-03-29T10:23:01.121Z,16.17
2019-03-29T10:25:32.008Z,18.30
2019-03-29T10:28:02.854Z,20.92
2019-03-29T10:30:36.066Z,29.55
2019-03-29T10:33:07.091Z,31.62
2019-03-29T10:35:50.889Z,24.60
2019-03-29T10:38:10.824Z,24.80
2019-03-29T10:40:41.815Z,26.02
2019-03-29T10:43:12.748Z,25.08
2019-03-29T10:45:43.937Z,23.75
2019-03-29T10:48:14.741Z,28.67
2019-03-29T10:50:45.382Z,24.35
2019-03-29T10:53:16.375Z,22.65
2019-03-29T10:55:47.344Z,19.25
2019-03-29T10:58:18.316Z,20.45
2019-03-29T11:00:49.029Z,21.45
2019-03-29T11:03:19.945Z,18.52
2019-03-29T11:05:51.166Z,23.25
2019-03-29T11:08:22.016Z,20.72
2019-03-29T11:10:52.901Z,24.12
2019-03-29T11:13:23.714Z,22.17
2019-03-29T11:15:54.648Z,21.77
2019-03-29T11:18:25.619Z,22.50
2019-03-29T11:20:56.851Z,22.40
2019-03-29T11:23:27.773Z,19.20
2019-03-29T11:25:58.582Z,22.48
2019-03-29T11:28:29.520Z,19.45
2019-03-29T11:31:00.500Z,20.68
2019-03-29T11:33:31.093Z,22.20
2019-03-29T11:36:01.914Z,23.80
2019-03-29T11:38:32.681Z,19.87
2019-03-29T11:41:03.640Z,23.67
2019-03-29T11:43:34.441Z,21.27
2019-03-29T11:46:05.321Z,24.10
2019-03-29T11:48:36.139Z,23.52
2019-03-29T11:51:18.651Z,23.38
2019-03-29T11:53:39.168Z,26.33
2019-03-29T11:56:10.017Z,24.87
2019-03-29T11:58:40.694Z,23.95
2019-03-29T12:01:11.647Z,23.83
2019-03-29T12:03:42.723Z,24.43
2019-03-29T12:06:13.746Z,25.30
2019-03-29T12:08:44.562Z,26.60
2019-03-29T12:11:15.550Z,21.55
2019-03-29T12:13:46.515Z,24.30
2019-03-29T12:16:17.561Z,29.23
2019-03-29T12:18:48.409Z,30.90
2019-03-29T12:21:19.095Z,29.32
2019-03-29T12:23:49.911Z,39.98
2019-03-29T12:26:20.586Z,41.00
2019-03-29T12:28:51.416Z,43.95
2019-03-29T12:31:22.097Z,44.65
2019-03-29T12:33:52.996Z,37.90
2019-03-29T12:36:24.121Z,32.98
2019-03-29T12:38:55.183Z,34.43
2019-03-29T12:41:25.815Z,33.85
2019-03-29T12:43:56.966Z,29.70
2019-03-29T12:46:27.709Z,27.80
2019-03-29T12:48:58.638Z,31.33
2019-03-29T12:51:29.865Z,33.08
2019-03-29T12:54:00.717Z,32.85
2019-03-29T12:56:31.609Z,33.42
2019-03-29T12:59:02.419Z,27.37
2019-03-29T13:01:39.415Z,29.30
2019-03-29T13:04:05.394Z,26.87
2019-03-29T13:06:36.653Z,28.50
2019-03-29T13:09:08.136Z,26.25
2019-03-29T13:11:39.029Z,27.27
2019-03-29T13:14:10.989Z,26.10
2019-03-29T13:16:41.963Z,24.55
2019-03-29T13:19:12.786Z,26.80
2019-03-29T13:21:43.770Z,23.57
2019-03-29T13:24:16.039Z,23.38
2019-03-29T13:26:46.682Z,25.45
2019-03-29T13:29:17.450Z,25.65
2019-03-29T13:31:48.470Z,23.55
2019-03-29T13:34:19.321Z,23.25
2019-03-29T13:36:50.114Z,21.20
2019-03-29T13:39:20.913Z,24.75
2019-03-29T13:41:51.940Z,21.42
2019-03-29T13:44:24.026Z,22.27
2019-03-29T13:46:54.769Z,19.75
2019-03-29T13:49:25.573Z,20.65
2019-03-29T13:51:56.318Z,21.33
2019-03-29T13:54:27.034Z,19.52
2019-03-29T13:56:57.963Z,21.07
2019-03-29T13:59:31.652Z,27.67
2019-03-29T14:02:00.892Z,25.70
2019-03-29T14:04:31.737Z,21.42
2019-03-29T14:07:02.522Z,20.75
2019-03-29T14:09:33.255Z,23.60
2019-03-29T14:12:04.087Z,20.45
2019-03-29T14:14:38.532Z,21.97
2019-03-29T14:17:07.185Z,26.45
2019-03-29T14:19:38.071Z,35.63
2019-03-29T14:22:09.031Z,44.60
2019-03-29T14:24:39.906Z,41.63
2019-03-29T14:27:10.677Z,33.05
2019-03-29T14:29:41.439Z,30.43
2019-03-29T14:32:12.244Z,26.62
2019-03-29T14:34:43.132Z,28.67
2019-03-29T14:37:13.904Z,30.77
2019-03-29T14:39:44.707Z,33.18
2019-03-29T14:42:15.886Z,30.17
2019-03-29T14:44:52.210Z,27.15
2019-03-29T14:47:18.912Z,23.67
2019-03-29T14:49:49.903Z,23.60
2019-03-29T14:52:20.825Z,29.23
2019-03-29T14:54:51.608Z,27.32
2019-03-29T14:57:22.392Z,33.28
2019-03-29T14:59:53.092Z,29.72
2019-03-29T15:02:24.306Z,31.42
2019-03-29T15:04:55.167Z,32.88
2019-03-29T15:07:26.083Z,34.70
2019-03-29T15:09:58.429Z,34.60
2019-03-29T15:12:29.150Z,30.77
2019-03-29T15:15:05.908Z,34.00
2019-03-29T15:17:32.144Z,34.43
2019-03-29T15:20:02.955Z,31.65
2019-03-29T15:22:33.703Z,29.50
2019-03-29T15:25:04.388Z,31.62
2019-03-29T15:27:35.112Z,33.42
2019-03-29T15:30:08.113Z,29.80
2019-03-29T15:32:38.709Z,36.42
2019-03-29T15:35:09.613Z,30.70
2019-03-29T15:37:40.605Z,32.05
2019-03-29T15:40:12.060Z,34.70
2019-03-29T15:42:43.050Z,35.98
2019-03-29T15:45:20.635Z,40.73
2019-03-29T15:47:47.762Z,29.65
2019-03-29T15:50:18.952Z,30.80
2019-03-29T15:52:49.768Z,33.20
2019-03-29T15:55:20.328Z,30.92
2019-03-29T15:57:52.276Z,32.63
2019-03-29T16:00:23.115Z,33.18
2019-03-29T16:02:53.967Z,31.00
2019-03-29T16:05:24.778Z,35.00
2019-03-29T16:07:56.147Z,29.80
2019-03-29T16:10:27.267Z,30.12
2019-03-29T16:12:58.215Z,29.72
2019-03-29T16:15:35.205Z,30.85
2019-03-29T16:18:01.125Z,30.00
2019-03-29T16:20:32.242Z,24.65
2019-03-29T16:23:03.771Z,27.17
2019-03-29T16:25:35.382Z,30.10
2019-03-29T16:28:06.203Z,26.65
2019-03-29T16:30:38.882Z,24.55
2019-03-29T16:33:09.814Z,30.55
2019-03-29T16:35:40.890Z,28.25
2019-03-29T16:38:11.695Z,29.20
2019-03-29T16:40:42.544Z,30.00
2019-03-29T16:43:13.287Z,30.23
2019-03-29T16:45:48.150Z,28.80
2019-03-29T16:48:16.243Z,30.90
2019-03-29T16:50:47.275Z,35.30
2019-03-29T16:53:18.351Z,33.20
2019-03-29T16:55:49.321Z,32.80
2019-03-29T16:58:20.144Z,37.93
2019-03-29T17:00:50.907Z,37.28
2019-03-29T17:03:21.780Z,36.60
2019-03-29T17:05:52.655Z,41.90
2019-03-29T17:08:23.434Z,36.88
2019-03-29T17:10:54.354Z,39.35
2019-03-29T17:13:25.304Z,39.10
2019-03-29T17:16:01.528Z,39.20
2019-03-29T17:18:29.472Z,40.17
2019-03-29T17:21:00.648Z,41.95
2019-03-29T17:23:31.654Z,40.78
2019-03-29T17:26:02.799Z,42.05
2019-03-29T17:28:33.802Z,39.13
2019-03-29T17:31:05.895Z,41.33
2019-03-29T17:33:36.523Z,40.95
2019-03-29T17:36:08.356Z,40.70
2019-03-29T17:38:39.206Z,41.02
2019-03-29T17:41:10.010Z,38.92
2019-03-29T17:43:40.990Z,43.90
2019-03-29T17:46:16.772Z,41.60
2019-03-29T17:48:44.099Z,39.33
2019-03-29T17:51:16.127Z,38.88
2019-03-29T17:53:47.004Z,39.33
2019-03-29T17:56:18.388Z,42.23
2019-03-29T17:58:49.215Z,40.30
2019-03-29T18:01:20.031Z,42.58
2019-03-29T18:03:50.824Z,42.78
2019-03-29T18:06:21.517Z,39.58
2019-03-29T18:08:52.472Z,43.85
2019-03-29T18:11:23.172Z,42.73
2019-03-29T18:13:53.959Z,40.08
2019-03-29T18:16:30.905Z,37.83
2019-03-29T18:18:57.190Z,40.33
2019-03-29T18:21:28.630Z,38.13
2019-03-29T18:23:59.486Z,41.95
2019-03-29T18:26:30.242Z,38.30
2019-03-29T18:29:01.921Z,61.60
2019-03-29T18:31:33.094Z,142.40
2019-03-29T18:34:04.186Z,187.60
2019-03-29T18:36:35.301Z,163.82
2019-03-29T18:39:08.023Z,137.10
2019-03-29T18:41:38.819Z,123.95
2019-03-29T18:44:09.707Z,113.28
2019-03-29T18:46:44.848Z,116.80
2019-03-29T18:49:12.633Z,109.07
2019-03-29T18:51:43.633Z,113.47
2019-03-29T18:54:14.516Z,105.90
2019-03-29T18:56:45.422Z,105.95
2019-03-29T18:59:16.290Z,88.58
2019-03-29T19:01:47.282Z,95.07
2019-03-29T19:04:17.979Z,88.90
2019-03-29T19:06:48.976Z,84.00
2019-03-29T19:09:19.893Z,86.72
2019-03-29T19:11:51.238Z,93.65
2019-03-29T19:14:21.922Z,88.15
2019-03-29T19:16:58.830Z,81.90
2019-03-29T19:19:24.816Z,92.55
2019-03-29T19:21:55.828Z,82.53
2019-03-29T19:24:26.833Z,81.02
2019-03-29T19:26:57.664Z,82.47
2019-03-29T19:29:28.509Z,81.87
2019-03-29T19:31:59.782Z,67.15
2019-03-29T19:34:30.583Z,60.73
2019-03-29T19:37:01.624Z,63.95
2019-03-29T19:39:32.468Z,72.20
2019-03-29T19:42:03.274Z,69.75
2019-03-29T19:44:34.065Z,73.90
2019-03-29T19:47:13.266Z,67.37
2019-03-29T19:49:37.265Z,63.48
2019-03-29T19:52:08.127Z,70.95
2019-03-29T19:54:38.899Z,74.40
2019-03-29T19:57:10.076Z,68.87
2019-03-29T19:59:40.789Z,70.92
2019-03-29T20:02:12.507Z,60.70
2019-03-29T20:04:43.371Z,60.95
2019-03-29T20:07:14.217Z,58.52
2019-03-29T20:09:45.108Z,59.18
2019-03-29T20:12:15.938Z,57.62
2019-03-29T20:14:47.224Z,58.33
2019-03-29T20:17:27.477Z,51.58
2019-03-29T20:19:50.435Z,53.38
2019-03-29T20:22:21.255Z,51.95
2019-03-29T20:24:52.052Z,46.95
2019-03-29T20:27:22.704Z,50.98
2019-03-29T20:29:53.631Z,51.53
2019-03-29T20:32:25.052Z,47.70
2019-03-29T20:34:56.028Z,39.42
2019-03-29T20:37:26.825Z,44.93
2019-03-29T20:39:57.646Z,44.73
2019-03-29T20:42:28.447Z,48.25
2019-03-29T20:44:59.258Z,48.23
2019-03-29T20:47:41.360Z,48.83
2019-03-29T20:50:02.135Z,41.08
2019-03-29T20:52:33.010Z,49.70
2019-03-29T20:55:03.969Z,45.65
2019-03-29T20:57:34.557Z,46.98
2019-03-29T21:00:08.594Z,45.92
2019-03-29T21:02:39.379Z,44.23
2019-03-29T21:05:10.651Z,45.60
2019-03-29T21:07:41.639Z,49.27
2019-03-29T21:10:12.921Z,42.35
2019-03-29T21:12:43.842Z,47.17
2019-03-29T21:15:16.087Z,45.92
2019-03-29T21:17:56.570Z,46.65
2019-03-29T21:20:19.608Z,49.35
2019-03-29T21:22:50.328Z,47.17
2019-03-29T21:25:21.145Z,47.93
2019-03-29T21:27:51.956Z,46.80
2019-03-29T21:30:22.814Z,47.88
2019-03-29T21:32:53.692Z,51.83
2019-03-29T21:35:24.896Z,60.40
2019-03-29T21:37:55.755Z,56.05
2019-03-29T21:40:26.515Z,56.92
2019-03-29T21:42:57.448Z,52.15
2019-03-29T21:45:29.299Z,51.42
2019-03-29T21:48:08.818Z,52.35
2019-03-29T21:50:32.445Z,49.70
2019-03-29T21:53:03.091Z,53.42
2019-03-29T21:55:33.914Z,55.28
2019-03-29T21:58:04.607Z,50.40
2019-03-29T22:00:35.520Z,49.03
2019-03-29T22:03:06.332Z,53.87
2019-03-29T22:05:37.104Z,51.05
2019-03-29T22:08:07.841Z,50.45
2019-03-29T23:43:00.750Z,39.35
2019-03-29T23:45:31.670Z,39.30
2019-03-29T23:48:02.372Z,39.63
2019-03-29T23:50:33.179Z,40.23
2019-03-29T23:53:03.820Z,37.40
2019-03-29T23:55:34.659Z,36.00
2019-03-29T23:58:05.741Z,42.98
